sensor_id;sensor_type;location;lat;lon;timestamp;P1;durP1;ratioP1;P2;durP2;ratioP2
46447;SDS011;32145;50.390;30.778;2023-08-08T00:00:09;3.75;;;2.75;;
46447;SDS011;32145;50.390;30.778;2023-08-08T00:03:04;3.85;;;2.95;;
46447;SDS011;32145;50.390;30.778;2023-08-08T00:05:59;4.63;;;2.78;;
46447;SDS011;32145;50.390;30.778;2023-08-08T00:08:54;4.25;;;3.00;;
46447;SDS011;32145;50.390;30.778;2023-08-08T00:11:49;8.27;;;3.28;;
46447;SDS011;32145;50.390;30.778;2023-08-08T00:14:43;4.03;;;2.92;;
46447;SDS011;32145;50.390;30.778;2023-08-08T00:17:37;3.50;;;2.97;;
46447;SDS011;32145;50.390;30.778;2023-08-08T00:20:32;3.72;;;2.78;;
46447;SDS011;32145;50.390;30.778;2023-08-08T00:23:26;3.97;;;3.08;;
46447;SDS011;32145;50.390;30.778;2023-08-08T00:26:24;5.35;;;3.05;;
46447;SDS011;32145;50.390;30.778;2023-08-08T00:29:20;4.30;;;3.20;;
46447;SDS011;32145;50.390;30.778;2023-08-08T00:32:16;4.20;;;2.45;;
46447;SDS011;32145;50.390;30.778;2023-08-08T00:35:13;5.57;;;3.10;;
46447;SDS011;32145;50.390;30.778;2023-08-08T00:38:09;4.18;;;2.90;;
46447;SDS011;32145;50.390;30.778;2023-08-08T00:41:06;5.10;;;2.65;;
46447;SDS011;32145;50.390;30.778;2023-08-08T00:44:03;4.68;;;3.03;;
46447;SDS011;32145;50.390;30.778;2023-08-08T00:46:59;4.35;;;3.03;;
46447;SDS011;32145;50.390;30.778;2023-08-08T00:49:56;3.17;;;2.60;;
46447;SDS011;32145;50.390;30.778;2023-08-08T00:52:52;6.65;;;2.70;;
46447;SDS011;32145;50.390;30.778;2023-08-08T00:55:49;5.22;;;3.05;;
46447;SDS011;32145;50.390;30.778;2023-08-08T00:58:46;4.47;;;2.90;;
46447;SDS011;32145;50.390;30.778;2023-08-08T01:01:44;5.25;;;3.00;;
46447;SDS011;32145;50.390;30.778;2023-08-08T01:04:40;9.45;;;3.20;;
46447;SDS011;32145;50.390;30.778;2023-08-08T01:07:38;5.35;;;3.13;;
46447;SDS011;32145;50.390;30.778;2023-08-08T01:10:48;4.07;;;2.95;;
46447;SDS011;32145;50.390;30.778;2023-08-08T01:13:42;4.90;;;2.95;;
46447;SDS011;32145;50.390;30.778;2023-08-08T01:16:38;4.63;;;3.08;;
46447;SDS011;32145;50.390;30.778;2023-08-08T01:19:34;4.43;;;3.05;;
46447;SDS011;32145;50.390;30.778;2023-08-08T01:22:30;4.63;;;2.90;;
46447;SDS011;32145;50.390;30.778;2023-08-08T01:25:40;4.95;;;3.10;;
46447;SDS011;32145;50.390;30.778;2023-08-08T01:28:36;4.13;;;2.88;;
46447;SDS011;32145;50.390;30.778;2023-08-08T01:31:30;4.00;;;2.83;;
46447;SDS011;32145;50.390;30.778;2023-08-08T01:34:24;5.82;;;2.70;;
46447;SDS011;32145;50.390;30.778;2023-08-08T01:37:19;5.07;;;2.70;;
46447;SDS011;32145;50.390;30.778;2023-08-08T01:40:29;4.13;;;2.92;;
46447;SDS011;32145;50.390;30.778;2023-08-08T01:43:27;4.50;;;2.92;;
46447;SDS011;32145;50.390;30.778;2023-08-08T01:46:23;5.00;;;2.92;;
46447;SDS011;32145;50.390;30.778;2023-08-08T01:49:17;5.63;;;3.30;;
46447;SDS011;32145;50.390;30.778;2023-08-08T01:52:11;4.35;;;2.90;;
46447;SDS011;32145;50.390;30.778;2023-08-08T01:55:06;5.90;;;3.10;;
46447;SDS011;32145;50.390;30.778;2023-08-08T01:58:01;5.32;;;2.97;;
46447;SDS011;32145;50.390;30.778;2023-08-08T02:00:57;4.85;;;2.63;;
46447;SDS011;32145;50.390;30.778;2023-08-08T02:03:51;4.22;;;2.63;;
46447;SDS011;32145;50.390;30.778;2023-08-08T02:06:45;4.53;;;2.72;;
46447;SDS011;32145;50.390;30.778;2023-08-08T02:09:40;5.45;;;2.85;;
46447;SDS011;32145;50.390;30.778;2023-08-08T02:12:34;5.38;;;3.05;;
46447;SDS011;32145;50.390;30.778;2023-08-08T02:15:29;4.15;;;3.03;;
46447;SDS011;32145;50.390;30.778;2023-08-08T02:18:24;6.90;;;3.15;;
46447;SDS011;32145;50.390;30.778;2023-08-08T02:21:19;4.97;;;2.85;;
46447;SDS011;32145;50.390;30.778;2023-08-08T02:24:13;5.15;;;3.00;;
46447;SDS011;32145;50.390;30.778;2023-08-08T02:27:07;5.10;;;3.03;;
46447;SDS011;32145;50.390;30.778;2023-08-08T02:30:04;3.95;;;2.90;;
46447;SDS011;32145;50.390;30.778;2023-08-08T02:33:01;3.75;;;2.65;;
46447;SDS011;32145;50.390;30.778;2023-08-08T02:35:58;4.82;;;3.03;;
46447;SDS011;32145;50.390;30.778;2023-08-08T02:38:55;4.45;;;2.95;;
46447;SDS011;32145;50.390;30.778;2023-08-08T02:41:51;7.03;;;2.95;;
46447;SDS011;32145;50.390;30.778;2023-08-08T02:44:48;6.78;;;2.90;;
46447;SDS011;32145;50.390;30.778;2023-08-08T02:47:44;4.90;;;3.22;;
46447;SDS011;32145;50.390;30.778;2023-08-08T02:50:40;6.00;;;3.10;;
46447;SDS011;32145;50.390;30.778;2023-08-08T02:53:38;4.38;;;2.85;;
46447;SDS011;32145;50.390;30.778;2023-08-08T02:56:34;4.78;;;3.20;;
46447;SDS011;32145;50.390;30.778;2023-08-08T02:59:31;4.22;;;3.40;;
46447;SDS011;32145;50.390;30.778;2023-08-08T03:02:27;4.53;;;3.03;;
46447;SDS011;32145;50.390;30.778;2023-08-08T03:05:24;5.47;;;3.38;;
46447;SDS011;32145;50.390;30.778;2023-08-08T03:08:20;4.75;;;3.17;;
46447;SDS011;32145;50.390;30.778;2023-08-08T03:11:16;7.43;;;3.50;;
46447;SDS011;32145;50.390;30.778;2023-08-08T03:14:10;6.60;;;3.75;;
46447;SDS011;32145;50.390;30.778;2023-08-08T03:17:05;8.13;;;3.72;;
46447;SDS011;32145;50.390;30.778;2023-08-08T03:19:59;6.63;;;3.70;;
46447;SDS011;32145;50.390;30.778;2023-08-08T03:22:53;9.65;;;4.05;;
46447;SDS011;32145;50.390;30.778;2023-08-08T03:25:48;6.15;;;3.92;;
46447;SDS011;32145;50.390;30.778;2023-08-08T03:28:43;6.78;;;4.20;;
46447;SDS011;32145;50.390;30.778;2023-08-08T03:31:38;14.00;;;4.10;;
46447;SDS011;32145;50.390;30.778;2023-08-08T03:34:32;8.77;;;4.10;;
46447;SDS011;32145;50.390;30.778;2023-08-08T03:37:26;10.00;;;4.85;;
46447;SDS011;32145;50.390;30.778;2023-08-08T03:40:21;7.15;;;4.22;;
46447;SDS011;32145;50.390;30.778;2023-08-08T03:43:15;6.32;;;4.15;;
46447;SDS011;32145;50.390;30.778;2023-08-08T03:46:11;7.60;;;4.10;;
46447;SDS011;32145;50.390;30.778;2023-08-08T03:49:05;6.10;;;3.88;;
46447;SDS011;32145;50.390;30.778;2023-08-08T03:51:59;7.70;;;3.67;;
46447;SDS011;32145;50.390;30.778;2023-08-08T03:54:53;5.65;;;3.60;;
46447;SDS011;32145;50.390;30.778;2023-08-08T03:57:48;6.30;;;3.50;;
46447;SDS011;32145;50.390;30.778;2023-08-08T04:00:44;5.40;;;3.05;;
46447;SDS011;32145;50.390;30.778;2023-08-08T04:03:42;3.40;;;2.53;;
46447;SDS011;32145;50.390;30.778;2023-08-08T04:06:38;4.20;;;2.67;;
46447;SDS011;32145;50.390;30.778;2023-08-08T04:09:35;3.72;;;2.28;;
46447;SDS011;32145;50.390;30.778;2023-08-08T04:12:31;3.67;;;2.28;;
46447;SDS011;32145;50.390;30.778;2023-08-08T04:15:27;3.50;;;2.22;;
46447;SDS011;32145;50.390;30.778;2023-08-08T04:18:12;5.45;;;2.50;;
46447;SDS011;32145;50.390;30.778;2023-08-08T04:20:57;4.47;;;2.10;;
46447;SDS011;32145;50.390;30.778;2023-08-08T04:23:41;2.80;;;2.20;;
46447;SDS011;32145;50.390;30.778;2023-08-08T04:26:25;4.88;;;2.50;;
46447;SDS011;32145;50.390;30.778;2023-08-08T04:29:21;3.47;;;2.35;;
46447;SDS011;32145;50.390;30.778;2023-08-08T04:32:05;4.55;;;2.35;;
46447;SDS011;32145;50.390;30.778;2023-08-08T04:35:02;4.10;;;2.42;;
46447;SDS011;32145;50.390;30.778;2023-08-08T04:37:48;4.55;;;2.60;;
46447;SDS011;32145;50.390;30.778;2023-08-08T04:40:32;4.00;;;2.60;;
46447;SDS011;32145;50.390;30.778;2023-08-08T04:43:28;6.68;;;2.70;;
46447;SDS011;32145;50.390;30.778;2023-08-08T04:46:18;5.90;;;2.58;;
46447;SDS011;32145;50.390;30.778;2023-08-08T04:49:13;3.58;;;2.58;;
46447;SDS011;32145;50.390;30.778;2023-08-08T04:52:07;4.15;;;2.42;;
46447;SDS011;32145;50.390;30.778;2023-08-08T04:55:03;5.25;;;3.05;;
46447;SDS011;32145;50.390;30.778;2023-08-08T04:57:58;3.83;;;2.65;;
46447;SDS011;32145;50.390;30.778;2023-08-08T05:00:52;5.47;;;2.72;;
46447;SDS011;32145;50.390;30.778;2023-08-08T05:03:47;6.40;;;3.20;;
46447;SDS011;32145;50.390;30.778;2023-08-08T05:06:41;5.10;;;2.92;;
46447;SDS011;32145;50.390;30.778;2023-08-08T05:09:35;6.50;;;2.30;;
46447;SDS011;32145;50.390;30.778;2023-08-08T05:12:27;4.18;;;2.88;;
46447;SDS011;32145;50.390;30.778;2023-08-08T05:15:11;3.72;;;2.42;;
46447;SDS011;32145;50.390;30.778;2023-08-08T05:18:07;3.20;;;2.25;;
46447;SDS011;32145;50.390;30.778;2023-08-08T05:21:03;5.68;;;2.70;;
46447;SDS011;32145;50.390;30.778;2023-08-08T05:24:00;3.67;;;2.35;;
46447;SDS011;32145;50.390;30.778;2023-08-08T05:26:56;4.15;;;2.33;;
46447;SDS011;32145;50.390;30.778;2023-08-08T05:29:54;4.15;;;2.38;;
46447;SDS011;32145;50.390;30.778;2023-08-08T05:32:38;3.25;;;1.88;;
46447;SDS011;32145;50.390;30.778;2023-08-08T05:35:22;2.67;;;1.80;;
46447;SDS011;32145;50.390;30.778;2023-08-08T05:38:18;3.78;;;2.05;;
46447;SDS011;32145;50.390;30.778;2023-08-08T05:41:14;2.80;;;1.70;;
46447;SDS011;32145;50.390;30.778;2023-08-08T05:44:11;4.60;;;1.80;;
46447;SDS011;32145;50.390;30.778;2023-08-08T05:47:08;2.78;;;1.77;;
46447;SDS011;32145;50.390;30.778;2023-08-08T05:50:05;3.78;;;1.75;;
46447;SDS011;32145;50.390;30.778;2023-08-08T05:53:01;5.63;;;2.08;;
46447;SDS011;32145;50.390;30.778;2023-08-08T05:55:56;2.67;;;1.77;;
46447;SDS011;32145;50.390;30.778;2023-08-08T05:58:50;5.30;;;1.80;;
46447;SDS011;32145;50.390;30.778;2023-08-08T06:01:44;3.90;;;1.60;;
46447;SDS011;32145;50.390;30.778;2023-08-08T06:04:40;3.25;;;1.60;;
46447;SDS011;32145;50.390;30.778;2023-08-08T06:07:34;4.22;;;1.83;;
46447;SDS011;32145;50.390;30.778;2023-08-08T06:10:29;2.35;;;1.63;;
46447;SDS011;32145;50.390;30.778;2023-08-08T06:13:23;4.47;;;1.67;;
46447;SDS011;32145;50.390;30.778;2023-08-08T06:16:07;3.65;;;1.65;;
46447;SDS011;32145;50.390;30.778;2023-08-08T06:18:51;5.25;;;1.67;;
46447;SDS011;32145;50.390;30.778;2023-08-08T06:21:47;2.40;;;1.48;;
46447;SDS011;32145;50.390;30.778;2023-08-08T06:24:31;4.00;;;1.65;;
46447;SDS011;32145;50.390;30.778;2023-08-08T06:27:27;2.70;;;1.30;;
46447;SDS011;32145;50.390;30.778;2023-08-08T06:30:23;5.32;;;1.83;;
46447;SDS011;32145;50.390;30.778;2023-08-08T06:33:20;3.33;;;1.58;;
46447;SDS011;32145;50.390;30.778;2023-08-08T06:36:10;1.92;;;1.35;;
46447;SDS011;32145;50.390;30.778;2023-08-08T06:39:06;3.15;;;1.35;;
46447;SDS011;32145;50.390;30.778;2023-08-08T06:42:00;4.13;;;1.50;;
46447;SDS011;32145;50.390;30.778;2023-08-08T06:44:56;2.97;;;1.50;;
46447;SDS011;32145;50.390;30.778;2023-08-08T06:47:47;2.50;;;1.52;;
46447;SDS011;32145;50.390;30.778;2023-08-08T06:50:31;3.70;;;1.50;;
46447;SDS011;32145;50.390;30.778;2023-08-08T06:53:14;3.33;;;1.30;;
46447;SDS011;32145;50.390;30.778;2023-08-08T06:56:10;3.35;;;1.40;;
46447;SDS011;32145;50.390;30.778;2023-08-08T06:59:06;3.65;;;1.60;;
46447;SDS011;32145;50.390;30.778;2023-08-08T07:01:50;3.03;;;1.50;;
46447;SDS011;32145;50.390;30.778;2023-08-08T07:04:45;3.13;;;1.42;;
46447;SDS011;32145;50.390;30.778;2023-08-08T07:07:39;3.38;;;1.50;;
46447;SDS011;32145;50.390;30.778;2023-08-08T07:10:23;3.25;;;1.30;;
46447;SDS011;32145;50.390;30.778;2023-08-08T07:13:21;2.47;;;1.35;;
46447;SDS011;32145;50.390;30.778;2023-08-08T07:16:06;3.88;;;1.10;;
46447;SDS011;32145;50.390;30.778;2023-08-08T07:19:00;2.72;;;1.30;;
46447;SDS011;32145;50.390;30.778;2023-08-08T07:21:54;3.65;;;1.40;;
46447;SDS011;32145;50.390;30.778;2023-08-08T07:24:38;3.30;;;1.23;;
46447;SDS011;32145;50.390;30.778;2023-08-08T07:27:34;2.25;;;1.02;;
46447;SDS011;32145;50.390;30.778;2023-08-08T07:30:19;4.07;;;1.30;;
46447;SDS011;32145;50.390;30.778;2023-08-08T07:33:14;2.40;;;1.10;;
46447;SDS011;32145;50.390;30.778;2023-08-08T07:36:08;1.92;;;1.20;;
46447;SDS011;32145;50.390;30.778;2023-08-08T07:38:52;1.90;;;1.23;;
46447;SDS011;32145;50.390;30.778;2023-08-08T07:41:36;3.45;;;1.50;;
46447;SDS011;32145;50.390;30.778;2023-08-08T07:44:30;3.65;;;1.20;;
46447;SDS011;32145;50.390;30.778;2023-08-08T07:47:15;3.20;;;1.30;;
46447;SDS011;32145;50.390;30.778;2023-08-08T07:49:59;3.15;;;1.40;;
46447;SDS011;32145;50.390;30.778;2023-08-08T07:52:43;2.05;;;0.85;;
46447;SDS011;32145;50.390;30.778;2023-08-08T07:55:28;3.33;;;0.73;;
46447;SDS011;32145;50.390;30.778;2023-08-08T07:58:24;2.55;;;0.90;;
46447;SDS011;32145;50.390;30.778;2023-08-08T08:01:14;1.65;;;0.80;;
46447;SDS011;32145;50.390;30.778;2023-08-08T08:04:10;1.70;;;0.80;;
46447;SDS011;32145;50.390;30.778;2023-08-08T08:07:04;1.75;;;0.80;;
46447;SDS011;32145;50.390;30.778;2023-08-08T08:09:49;2.05;;;0.80;;
46447;SDS011;32145;50.390;30.778;2023-08-08T08:12:33;4.57;;;0.98;;
46447;SDS011;32145;50.390;30.778;2023-08-08T08:15:27;2.28;;;1.02;;
46447;SDS011;32145;50.390;30.778;2023-08-08T08:18:22;2.00;;;1.08;;
46447;SDS011;32145;50.390;30.778;2023-08-08T08:21:07;4.45;;;1.00;;
46447;SDS011;32145;50.390;30.778;2023-08-08T08:24:01;3.00;;;1.05;;
46447;SDS011;32145;50.390;30.778;2023-08-08T08:26:52;1.85;;;1.05;;
46447;SDS011;32145;50.390;30.778;2023-08-08T08:29:36;1.50;;;0.70;;
46447;SDS011;32145;50.390;30.778;2023-08-08T08:32:32;2.63;;;0.90;;
46447;SDS011;32145;50.390;30.778;2023-08-08T08:35:22;2.00;;;0.90;;
46447;SDS011;32145;50.390;30.778;2023-08-08T08:38:09;1.20;;;0.70;;
46447;SDS011;32145;50.390;30.778;2023-08-08T08:41:05;3.35;;;1.02;;
46447;SDS011;32145;50.390;30.778;2023-08-08T08:43:55;1.60;;;0.80;;
46447;SDS011;32145;50.390;30.778;2023-08-08T08:46:39;1.73;;;0.80;;
46447;SDS011;32145;50.390;30.778;2023-08-08T08:49:24;1.20;;;0.70;;
46447;SDS011;32145;50.390;30.778;2023-08-08T08:52:19;2.60;;;0.93;;
46447;SDS011;32145;50.390;30.778;2023-08-08T08:55:05;1.58;;;0.93;;
46447;SDS011;32145;50.390;30.778;2023-08-08T08:57:50;2.20;;;0.70;;
46447;SDS011;32145;50.390;30.778;2023-08-08T09:00:34;1.65;;;0.80;;
46447;SDS011;32145;50.390;30.778;2023-08-08T09:03:25;1.65;;;0.90;;
46447;SDS011;32145;50.390;30.778;2023-08-08T09:06:10;1.35;;;0.70;;
46447;SDS011;32145;50.390;30.778;2023-08-08T09:08:55;1.45;;;0.70;;
46447;SDS011;32145;50.390;30.778;2023-08-08T09:11:40;3.78;;;0.80;;
46447;SDS011;32145;50.390;30.778;2023-08-08T09:14:39;1.52;;;0.80;;
46447;SDS011;32145;50.390;30.778;2023-08-08T09:17:39;2.55;;;0.80;;
46447;SDS011;32145;50.390;30.778;2023-08-08T09:20:25;1.40;;;0.80;;
46447;SDS011;32145;50.390;30.778;2023-08-08T09:23:09;1.58;;;0.65;;
46447;SDS011;32145;50.390;30.778;2023-08-08T09:25:53;1.00;;;0.60;;
46447;SDS011;32145;50.390;30.778;2023-08-08T09:28:49;1.63;;;0.70;;
46447;SDS011;32145;50.390;30.778;2023-08-08T09:31:34;1.13;;;0.70;;
46447;SDS011;32145;50.390;30.778;2023-08-08T09:34:31;1.33;;;0.73;;
46447;SDS011;32145;50.390;30.778;2023-08-08T09:37:15;1.30;;;0.80;;
46447;SDS011;32145;50.390;30.778;2023-08-08T09:40:09;1.27;;;0.77;;
46447;SDS011;32145;50.390;30.778;2023-08-08T09:42:54;1.50;;;0.70;;
46447;SDS011;32145;50.390;30.778;2023-08-08T09:45:47;1.80;;;0.68;;
46447;SDS011;32145;50.390;30.778;2023-08-08T09:48:42;1.35;;;0.70;;
46447;SDS011;32145;50.390;30.778;2023-08-08T09:51:36;1.40;;;0.70;;
46447;SDS011;32145;50.390;30.778;2023-08-08T09:54:20;4.53;;;0.80;;
46447;SDS011;32145;50.390;30.778;2023-08-08T09:57:15;1.10;;;0.70;;
46447;SDS011;32145;50.390;30.778;2023-08-08T10:00:10;1.35;;;0.80;;
46447;SDS011;32145;50.390;30.778;2023-08-08T10:03:06;1.17;;;0.60;;
46447;SDS011;32145;50.390;30.778;2023-08-08T10:05:51;1.52;;;0.70;;
46447;SDS011;32145;50.390;30.778;2023-08-08T10:08:47;1.75;;;0.70;;
46447;SDS011;32145;50.390;30.778;2023-08-08T10:11:33;1.40;;;0.60;;
46447;SDS011;32145;50.390;30.778;2023-08-08T10:14:18;2.92;;;0.93;;
46447;SDS011;32145;50.390;30.778;2023-08-08T10:17:15;1.98;;;0.80;;
46447;SDS011;32145;50.390;30.778;2023-08-08T10:20:01;1.23;;;0.70;;
46447;SDS011;32145;50.390;30.778;2023-08-08T10:22:54;1.55;;;0.70;;
46447;SDS011;32145;50.390;30.778;2023-08-08T10:25:50;1.48;;;0.57;;
46447;SDS011;32145;50.390;30.778;2023-08-08T10:28:35;2.95;;;0.80;;
46447;SDS011;32145;50.390;30.778;2023-08-08T10:31:20;1.30;;;0.60;;
46447;SDS011;32145;50.390;30.778;2023-08-08T10:34:05;1.98;;;0.77;;
46447;SDS011;32145;50.390;30.778;2023-08-08T10:37:03;1.27;;;0.70;;
46447;SDS011;32145;50.390;30.778;2023-08-08T10:39:50;1.58;;;0.77;;
46447;SDS011;32145;50.390;30.778;2023-08-08T10:42:40;2.05;;;0.57;;
46447;SDS011;32145;50.390;30.778;2023-08-08T10:45:40;2.90;;;0.90;;
46447;SDS011;32145;50.390;30.778;2023-08-08T10:48:25;2.03;;;0.70;;
46447;SDS011;32145;50.390;30.778;2023-08-08T10:51:09;2.83;;;0.73;;
46447;SDS011;32145;50.390;30.778;2023-08-08T10:53:59;1.40;;;0.90;;
46447;SDS011;32145;50.390;30.778;2023-08-08T10:56:48;1.95;;;0.80;;
46447;SDS011;32145;50.390;30.778;2023-08-08T10:59:35;1.58;;;0.70;;
46447;SDS011;32145;50.390;30.778;2023-08-08T11:02:21;3.03;;;0.80;;
46447;SDS011;32145;50.390;30.778;2023-08-08T11:05:17;3.70;;;0.90;;
46447;SDS011;32145;50.390;30.778;2023-08-08T11:08:02;2.85;;;0.98;;
46447;SDS011;32145;50.390;30.778;2023-08-08T11:10:51;1.55;;;0.82;;
46447;SDS011;32145;50.390;30.778;2023-08-08T11:13:36;1.38;;;0.80;;
46447;SDS011;32145;50.390;30.778;2023-08-08T11:16:30;2.00;;;0.90;;
46447;SDS011;32145;50.390;30.778;2023-08-08T11:19:15;1.52;;;0.88;;
46447;SDS011;32145;50.390;30.778;2023-08-08T11:22:00;3.35;;;1.10;;
46447;SDS011;32145;50.390;30.778;2023-08-08T11:24:44;1.63;;;0.88;;
46447;SDS011;32145;50.390;30.778;2023-08-08T11:27:29;2.92;;;0.90;;
46447;SDS011;32145;50.390;30.778;2023-08-08T11:30:27;1.77;;;0.90;;
46447;SDS011;32145;50.390;30.778;2023-08-08T11:33:13;1.85;;;0.90;;
46447;SDS011;32145;50.390;30.778;2023-08-08T11:36:08;1.90;;;0.90;;
46447;SDS011;32145;50.390;30.778;2023-08-08T11:39:03;1.30;;;0.82;;
46447;SDS011;32145;50.390;30.778;2023-08-08T11:41:58;2.33;;;1.00;;
46447;SDS011;32145;50.390;30.778;2023-08-08T11:44:43;2.05;;;0.93;;
46447;SDS011;32145;50.390;30.778;2023-08-08T11:47:27;2.10;;;0.93;;
46447;SDS011;32145;50.390;30.778;2023-08-08T11:50:23;1.48;;;0.90;;
46447;SDS011;32145;50.390;30.778;2023-08-08T11:53:10;3.13;;;0.90;;
46447;SDS011;32145;50.390;30.778;2023-08-08T11:55:55;1.38;;;1.00;;
46447;SDS011;32145;50.390;30.778;2023-08-08T11:58:39;1.42;;;0.90;;
46447;SDS011;32145;50.390;30.778;2023-08-08T12:01:35;2.45;;;1.00;;
46447;SDS011;32145;50.390;30.778;2023-08-08T12:04:31;3.20;;;1.40;;
46447;SDS011;32145;50.390;30.778;2023-08-08T12:07:27;1.08;;;0.63;;
46447;SDS011;32145;50.390;30.778;2023-08-08T12:10:17;1.20;;;0.70;;
46447;SDS011;32145;50.390;30.778;2023-08-08T12:13:03;3.92;;;0.85;;
46447;SDS011;32145;50.390;30.778;2023-08-08T12:15:47;1.60;;;0.80;;
46447;SDS011;32145;50.390;30.778;2023-08-08T12:18:32;1.27;;;0.68;;
46447;SDS011;32145;50.390;30.778;2023-08-08T12:21:17;1.90;;;0.82;;
46447;SDS011;32145;50.390;30.778;2023-08-08T12:24:11;0.93;;;0.73;;
46447;SDS011;32145;50.390;30.778;2023-08-08T12:27:06;3.63;;;0.82;;
46447;SDS011;32145;50.390;30.778;2023-08-08T12:29:51;2.70;;;0.80;;
46447;SDS011;32145;50.390;30.778;2023-08-08T12:32:41;1.52;;;0.80;;
46447;SDS011;32145;50.390;30.778;2023-08-08T12:35:37;1.05;;;0.70;;
46447;SDS011;32145;50.390;30.778;2023-08-08T12:38:21;1.27;;;0.80;;
46447;SDS011;32145;50.390;30.778;2023-08-08T12:41:05;2.65;;;0.75;;
46447;SDS011;32145;50.390;30.778;2023-08-08T12:44:01;1.60;;;0.80;;
46447;SDS011;32145;50.390;30.778;2023-08-08T12:46:45;1.25;;;0.77;;
46447;SDS011;32145;50.390;30.778;2023-08-08T12:49:29;0.98;;;0.68;;
46447;SDS011;32145;50.390;30.778;2023-08-08T12:52:27;1.48;;;0.85;;
46447;SDS011;32145;50.390;30.778;2023-08-08T12:55:11;0.90;;;0.70;;
46447;SDS011;32145;50.390;30.778;2023-08-08T12:58:05;2.28;;;0.88;;
46447;SDS011;32145;50.390;30.778;2023-08-08T13:01:01;1.05;;;0.60;;
46447;SDS011;32145;50.390;30.778;2023-08-08T13:03:45;0.90;;;0.68;;
46447;SDS011;32145;50.390;30.778;2023-08-08T13:06:40;1.80;;;0.70;;
46447;SDS011;32145;50.390;30.778;2023-08-08T13:09:35;1.42;;;0.80;;
46447;SDS011;32145;50.390;30.778;2023-08-08T13:12:32;0.93;;;0.60;;
46447;SDS011;32145;50.390;30.778;2023-08-08T13:15:15;1.30;;;0.70;;
46447;SDS011;32145;50.390;30.778;2023-08-08T13:18:10;2.08;;;0.77;;
46447;SDS011;32145;50.390;30.778;2023-08-08T13:21:04;2.00;;;0.57;;
46447;SDS011;32145;50.390;30.778;2023-08-08T13:23:48;1.75;;;0.70;;
46447;SDS011;32145;50.390;30.778;2023-08-08T13:26:44;1.50;;;0.70;;
46447;SDS011;32145;50.390;30.778;2023-08-08T13:29:28;1.27;;;0.70;;
46447;SDS011;32145;50.390;30.778;2023-08-08T13:32:22;3.58;;;0.80;;
46447;SDS011;32145;50.390;30.778;2023-08-08T13:35:16;0.82;;;0.60;;
46447;SDS011;32145;50.390;30.778;2023-08-08T13:38:11;0.70;;;0.60;;
46447;SDS011;32145;50.390;30.778;2023-08-08T13:40:55;1.52;;;0.60;;
46447;SDS011;32145;50.390;30.778;2023-08-08T13:43:40;1.33;;;0.80;;
46447;SDS011;32145;50.390;30.778;2023-08-08T13:46:24;2.53;;;0.80;;
46447;SDS011;32145;50.390;30.778;2023-08-08T13:49:20;1.98;;;0.70;;
46447;SDS011;32145;50.390;30.778;2023-08-08T13:52:04;3.10;;;0.80;;
46447;SDS011;32145;50.390;30.778;2023-08-08T13:54:48;1.25;;;0.80;;
46447;SDS011;32145;50.390;30.778;2023-08-08T13:57:32;1.45;;;0.63;;
46447;SDS011;32145;50.390;30.778;2023-08-08T14:00:28;2.97;;;0.77;;
46447;SDS011;32145;50.390;30.778;2023-08-08T14:03:12;3.25;;;0.80;;
46447;SDS011;32145;50.390;30.778;2023-08-08T14:05:56;1.73;;;0.80;;
46447;SDS011;32145;50.390;30.778;2023-08-08T14:08:40;1.20;;;0.77;;
46447;SDS011;32145;50.390;30.778;2023-08-08T14:11:35;1.00;;;0.70;;
46447;SDS011;32145;50.390;30.778;2023-08-08T14:14:29;0.80;;;0.60;;
46447;SDS011;32145;50.390;30.778;2023-08-08T14:17:15;1.35;;;0.75;;
46447;SDS011;32145;50.390;30.778;2023-08-08T14:19:59;1.40;;;0.60;;
46447;SDS011;32145;50.390;30.778;2023-08-08T14:22:55;4.18;;;0.77;;
46447;SDS011;32145;50.390;30.778;2023-08-08T14:25:39;1.35;;;0.80;;
46447;SDS011;32145;50.390;30.778;2023-08-08T14:28:35;1.95;;;0.80;;
46447;SDS011;32145;50.390;30.778;2023-08-08T14:31:19;1.58;;;0.70;;
46447;SDS011;32145;50.390;30.778;2023-08-08T14:34:15;2.30;;;0.75;;
46447;SDS011;32145;50.390;30.778;2023-08-08T14:36:59;1.25;;;0.80;;
46447;SDS011;32145;50.390;30.778;2023-08-08T14:39:44;3.33;;;1.00;;
46447;SDS011;32145;50.390;30.778;2023-08-08T14:42:40;2.17;;;0.90;;
46447;SDS011;32145;50.390;30.778;2023-08-08T14:45:25;2.88;;;0.90;;
46447;SDS011;32145;50.390;30.778;2023-08-08T14:48:19;2.95;;;1.00;;
46447;SDS011;32145;50.390;30.778;2023-08-08T14:51:14;2.50;;;1.00;;
46447;SDS011;32145;50.390;30.778;2023-08-08T14:53:59;1.40;;;0.90;;
46447;SDS011;32145;50.390;30.778;2023-08-08T14:56:43;4.38;;;1.13;;
46447;SDS011;32145;50.390;30.778;2023-08-08T14:59:27;1.95;;;1.00;;
46447;SDS011;32145;50.390;30.778;2023-08-08T15:02:22;3.15;;;0.88;;
46447;SDS011;32145;50.390;30.778;2023-08-08T15:05:06;3.20;;;1.10;;
46447;SDS011;32145;50.390;30.778;2023-08-08T15:08:04;2.55;;;1.00;;
46447;SDS011;32145;50.390;30.778;2023-08-08T15:10:49;3.63;;;0.85;;
46447;SDS011;32145;50.390;30.778;2023-08-08T15:13:39;2.78;;;0.90;;
46447;SDS011;32145;50.390;30.778;2023-08-08T15:16:33;1.40;;;0.90;;
46447;SDS011;32145;50.390;30.778;2023-08-08T15:19:27;3.00;;;0.90;;
46447;SDS011;32145;50.390;30.778;2023-08-08T15:22:11;1.80;;;1.00;;
46447;SDS011;32145;50.390;30.778;2023-08-08T15:25:09;3.53;;;1.05;;
46447;SDS011;32145;50.390;30.778;2023-08-08T15:27:53;1.63;;;0.93;;
46447;SDS011;32145;50.390;30.778;2023-08-08T15:30:37;3.60;;;1.95;;
46447;SDS011;32145;50.390;30.778;2023-08-08T15:33:21;5.55;;;3.00;;
46447;SDS011;32145;50.390;30.778;2023-08-08T15:36:15;64.05;;;38.13;;
46447;SDS011;32145;50.390;30.778;2023-08-08T15:38:59;58.28;;;37.15;;
46447;SDS011;32145;50.390;30.778;2023-08-08T15:41:45;26.33;;;17.65;;
46447;SDS011;32145;50.390;30.778;2023-08-08T15:44:29;7.82;;;4.85;;
46447;SDS011;32145;50.390;30.778;2023-08-08T15:47:13;12.82;;;7.55;;
46447;SDS011;32145;50.390;30.778;2023-08-08T15:50:08;11.88;;;7.38;;
46447;SDS011;32145;50.390;30.778;2023-08-08T15:52:53;10.93;;;6.80;;
46447;SDS011;32145;50.390;30.778;2023-08-08T15:55:37;27.52;;;19.17;;
46447;SDS011;32145;50.390;30.778;2023-08-08T15:58:28;21.17;;;11.77;;
46447;SDS011;32145;50.390;30.778;2023-08-08T16:01:23;10.48;;;6.10;;
46447;SDS011;32145;50.390;30.778;2023-08-08T16:04:07;19.70;;;12.52;;
46447;SDS011;32145;50.390;30.778;2023-08-08T16:07:01;8.70;;;5.50;;
46447;SDS011;32145;50.390;30.778;2023-08-08T16:09:45;7.57;;;4.80;;
46447;SDS011;32145;50.390;30.778;2023-08-08T16:12:29;14.00;;;9.05;;
46447;SDS011;32145;50.390;30.778;2023-08-08T16:15:15;9.88;;;7.20;;
46447;SDS011;32145;50.390;30.778;2023-08-08T16:18:09;8.07;;;5.43;;
46447;SDS011;32145;50.390;30.778;2023-08-08T16:20:53;4.10;;;2.13;;
46447;SDS011;32145;50.390;30.778;2023-08-08T16:23:49;5.90;;;3.08;;
46447;SDS011;32145;50.390;30.778;2023-08-08T16:26:46;2.90;;;1.75;;
46447;SDS011;32145;50.390;30.778;2023-08-08T16:29:41;3.63;;;1.20;;
46447;SDS011;32145;50.390;30.778;2023-08-08T16:32:40;3.00;;;1.58;;
46447;SDS011;32145;50.390;30.778;2023-08-08T16:35:33;2.90;;;1.45;;
46447;SDS011;32145;50.390;30.778;2023-08-08T16:38:31;3.53;;;1.65;;
46447;SDS011;32145;50.390;30.778;2023-08-08T16:41:25;5.43;;;2.20;;
46447;SDS011;32145;50.390;30.778;2023-08-08T16:44:18;5.53;;;2.15;;
46447;SDS011;32145;50.390;30.778;2023-08-08T16:47:12;3.58;;;2.00;;
46447;SDS011;32145;50.390;30.778;2023-08-08T16:50:09;5.45;;;1.88;;
46447;SDS011;32145;50.390;30.778;2023-08-08T16:53:01;4.55;;;1.65;;
46447;SDS011;32145;50.390;30.778;2023-08-08T16:55:57;3.95;;;1.70;;